sensor_id;sensor_type;location;lat;lon;timestamp;P1;durP1;ratioP1;P2;durP2;ratioP2
79452;SDS011;68899;52.116;5.404;2024-03-07T00:00:10;13.68;;;6.50;;
79452;SDS011;68899;52.116;5.404;2024-03-07T00:02:44;14.80;;;6.82;;
79452;SDS011;68899;52.116;5.404;2024-03-07T00:05:11;14.07;;;6.70;;
79452;SDS011;68899;52.116;5.404;2024-03-07T00:07:39;15.88;;;7.43;;
79452;SDS011;68899;52.116;5.404;2024-03-07T00:10:06;16.13;;;8.68;;
79452;SDS011;68899;52.116;5.404;2024-03-07T00:12:34;16.30;;;7.80;;
79452;SDS011;68899;52.116;5.404;2024-03-07T00:15:02;17.48;;;8.10;;
79452;SDS011;68899;52.116;5.404;2024-03-07T00:17:29;18.05;;;8.05;;
79452;SDS011;68899;52.116;5.404;2024-03-07T00:19:56;19.65;;;8.80;;
79452;SDS011;68899;52.116;5.404;2024-03-07T00:22:23;16.30;;;7.10;;
79452;SDS011;68899;52.116;5.404;2024-03-07T00:24:53;17.38;;;8.13;;
79452;SDS011;68899;52.116;5.404;2024-03-07T00:27:19;16.92;;;7.60;;
79452;SDS011;68899;52.116;5.404;2024-03-07T00:29:47;17.27;;;8.63;;
79452;SDS011;68899;52.116;5.404;2024-03-07T00:32:22;22.38;;;8.77;;
79452;SDS011;68899;52.116;5.404;2024-03-07T00:34:49;21.38;;;9.18;;
79452;SDS011;68899;52.116;5.404;2024-03-07T00:37:16;16.90;;;7.97;;
79452;SDS011;68899;52.116;5.404;2024-03-07T00:39:43;16.40;;;8.50;;
79452;SDS011;68899;52.116;5.404;2024-03-07T00:42:10;16.38;;;7.85;;
79452;SDS011;68899;52.116;5.404;2024-03-07T00:44:37;17.92;;;8.50;;
79452;SDS011;68899;52.116;5.404;2024-03-07T00:47:04;19.40;;;8.50;;
79452;SDS011;68899;52.116;5.404;2024-03-07T00:49:31;24.52;;;9.30;;
79452;SDS011;68899;52.116;5.404;2024-03-07T00:51:58;22.15;;;9.85;;
79452;SDS011;68899;52.116;5.404;2024-03-07T00:54:25;20.02;;;9.25;;
79452;SDS011;68899;52.116;5.404;2024-03-07T00:56:52;17.42;;;7.93;;
79452;SDS011;68899;52.116;5.404;2024-03-07T00:59:19;18.45;;;8.13;;
79452;SDS011;68899;52.116;5.404;2024-03-07T01:01:46;19.80;;;9.60;;
79452;SDS011;68899;52.116;5.404;2024-03-07T01:04:12;20.98;;;8.95;;
79452;SDS011;68899;52.116;5.404;2024-03-07T01:06:39;19.52;;;8.70;;
79452;SDS011;68899;52.116;5.404;2024-03-07T01:09:07;19.38;;;8.30;;
79452;SDS011;68899;52.116;5.404;2024-03-07T01:11:42;17.65;;;7.70;;
79452;SDS011;68899;52.116;5.404;2024-03-07T01:14:12;16.65;;;8.30;;
79452;SDS011;68899;52.116;5.404;2024-03-07T01:16:40;15.10;;;7.10;;
79452;SDS011;68899;52.116;5.404;2024-03-07T01:19:07;15.40;;;8.20;;
79452;SDS011;68899;52.116;5.404;2024-03-07T01:21:35;16.67;;;7.68;;
79452;SDS011;68899;52.116;5.404;2024-03-07T01:24:04;18.52;;;7.90;;
79452;SDS011;68899;52.116;5.404;2024-03-07T01:26:32;17.67;;;8.07;;
79452;SDS011;68899;52.116;5.404;2024-03-07T01:29:02;17.08;;;8.30;;
79452;SDS011;68899;52.116;5.404;2024-03-07T01:31:29;20.48;;;8.10;;
79452;SDS011;68899;52.116;5.404;2024-03-07T01:33:55;19.67;;;8.98;;
79452;SDS011;68899;52.116;5.404;2024-03-07T01:36:22;20.58;;;9.05;;
79452;SDS011;68899;52.116;5.404;2024-03-07T01:38:48;16.38;;;8.30;;
79452;SDS011;68899;52.116;5.404;2024-03-07T01:41:15;20.05;;;8.02;;
79452;SDS011;68899;52.116;5.404;2024-03-07T01:43:43;17.15;;;8.23;;
79452;SDS011;68899;52.116;5.404;2024-03-07T01:46:12;20.05;;;9.25;;
79452;SDS011;68899;52.116;5.404;2024-03-07T01:48:40;21.20;;;8.35;;
79452;SDS011;68899;52.116;5.404;2024-03-07T01:51:07;21.23;;;8.57;;
79452;SDS011;68899;52.116;5.404;2024-03-07T01:53:35;21.83;;;9.45;;
79452;SDS011;68899;52.116;5.404;2024-03-07T01:56:02;20.27;;;8.98;;
79452;SDS011;68899;52.116;5.404;2024-03-07T01:58:30;19.58;;;9.15;;
79452;SDS011;68899;52.116;5.404;2024-03-07T02:01:00;18.50;;;8.27;;
79452;SDS011;68899;52.116;5.404;2024-03-07T02:03:27;20.98;;;10.50;;
79452;SDS011;68899;52.116;5.404;2024-03-07T02:05:53;21.83;;;9.50;;
79452;SDS011;68899;52.116;5.404;2024-03-07T02:08:21;20.42;;;9.88;;
79452;SDS011;68899;52.116;5.404;2024-03-07T02:10:47;20.88;;;9.25;;
79452;SDS011;68899;52.116;5.404;2024-03-07T02:13:15;21.65;;;11.32;;
79452;SDS011;68899;52.116;5.404;2024-03-07T02:15:42;23.65;;;10.23;;
79452;SDS011;68899;52.116;5.404;2024-03-07T02:18:10;22.73;;;10.10;;
79452;SDS011;68899;52.116;5.404;2024-03-07T02:20:37;20.05;;;9.95;;
79452;SDS011;68899;52.116;5.404;2024-03-07T02:23:04;20.05;;;9.48;;
79452;SDS011;68899;52.116;5.404;2024-03-07T02:25:31;24.50;;;9.82;;
79452;SDS011;68899;52.116;5.404;2024-03-07T02:27:58;22.98;;;10.23;;
79452;SDS011;68899;52.116;5.404;2024-03-07T02:30:25;19.50;;;8.88;;
79452;SDS011;68899;52.116;5.404;2024-03-07T02:32:51;21.98;;;10.50;;
79452;SDS011;68899;52.116;5.404;2024-03-07T02:35:22;20.63;;;9.98;;
79452;SDS011;68899;52.116;5.404;2024-03-07T02:37:50;22.92;;;10.63;;
79452;SDS011;68899;52.116;5.404;2024-03-07T02:40:17;25.40;;;11.05;;
79452;SDS011;68899;52.116;5.404;2024-03-07T02:42:43;22.83;;;10.15;;
79452;SDS011;68899;52.116;5.404;2024-03-07T02:45:10;24.38;;;10.32;;
79452;SDS011;68899;52.116;5.404;2024-03-07T02:47:41;24.52;;;10.70;;
79452;SDS011;68899;52.116;5.404;2024-03-07T02:50:09;21.95;;;10.30;;
79452;SDS011;68899;52.116;5.404;2024-03-07T02:52:36;23.75;;;10.70;;
79452;SDS011;68899;52.116;5.404;2024-03-07T02:55:03;22.60;;;10.10;;
79452;SDS011;68899;52.116;5.404;2024-03-07T02:57:31;26.50;;;10.30;;
79452;SDS011;68899;52.116;5.404;2024-03-07T02:59:58;26.85;;;11.50;;
79452;SDS011;68899;52.116;5.404;2024-03-07T03:02:25;24.15;;;10.15;;
79452;SDS011;68899;52.116;5.404;2024-03-07T03:04:52;23.92;;;10.13;;
79452;SDS011;68899;52.116;5.404;2024-03-07T03:07:18;21.23;;;11.02;;
79452;SDS011;68899;52.116;5.404;2024-03-07T03:09:45;25.45;;;10.65;;
79452;SDS011;68899;52.116;5.404;2024-03-07T03:12:12;28.73;;;11.70;;
79452;SDS011;68899;52.116;5.404;2024-03-07T03:14:39;28.02;;;12.07;;
79452;SDS011;68899;52.116;5.404;2024-03-07T03:17:06;24.08;;;11.18;;
79452;SDS011;68899;52.116;5.404;2024-03-07T03:19:35;24.42;;;10.77;;
79452;SDS011;68899;52.116;5.404;2024-03-07T03:22:02;23.88;;;10.68;;
79452;SDS011;68899;52.116;5.404;2024-03-07T03:24:29;26.20;;;10.68;;
79452;SDS011;68899;52.116;5.404;2024-03-07T03:26:57;22.65;;;10.43;;
79452;SDS011;68899;52.116;5.404;2024-03-07T03:29:24;23.67;;;10.93;;
79452;SDS011;68899;52.116;5.404;2024-03-07T03:31:51;28.02;;;11.38;;
79452;SDS011;68899;52.116;5.404;2024-03-07T03:34:17;24.83;;;10.43;;
79452;SDS011;68899;52.116;5.404;2024-03-07T03:36:44;24.52;;;11.20;;
79452;SDS011;68899;52.116;5.404;2024-03-07T03:39:11;22.55;;;10.75;;
79452;SDS011;68899;52.116;5.404;2024-03-07T03:41:40;22.67;;;9.55;;
79452;SDS011;68899;52.116;5.404;2024-03-07T03:44:06;22.95;;;10.02;;
79452;SDS011;68899;52.116;5.404;2024-03-07T03:46:34;22.25;;;9.90;;
79452;SDS011;68899;52.116;5.404;2024-03-07T03:49:00;22.33;;;10.05;;
79452;SDS011;68899;52.116;5.404;2024-03-07T03:51:27;24.88;;;10.10;;
79452;SDS011;68899;52.116;5.404;2024-03-07T03:53:54;22.35;;;10.32;;
79452;SDS011;68899;52.116;5.404;2024-03-07T03:56:21;21.95;;;9.85;;
79452;SDS011;68899;52.116;5.404;2024-03-07T03:58:48;22.67;;;10.18;;
79452;SDS011;68899;52.116;5.404;2024-03-07T04:01:15;26.38;;;10.63;;
79452;SDS011;68899;52.116;5.404;2024-03-07T04:03:42;25.17;;;10.65;;
79452;SDS011;68899;52.116;5.404;2024-03-07T04:06:16;24.70;;;10.25;;
79452;SDS011;68899;52.116;5.404;2024-03-07T04:08:42;26.30;;;10.07;;
79452;SDS011;68899;52.116;5.404;2024-03-07T04:11:09;22.27;;;10.02;;
79452;SDS011;68899;52.116;5.404;2024-03-07T04:13:36;19.88;;;9.57;;
79452;SDS011;68899;52.116;5.404;2024-03-07T04:16:04;20.90;;;9.68;;
79452;SDS011;68899;52.116;5.404;2024-03-07T04:18:31;19.75;;;8.60;;
79452;SDS011;68899;52.116;5.404;2024-03-07T04:20:59;21.10;;;8.68;;
79452;SDS011;68899;52.116;5.404;2024-03-07T04:23:26;16.88;;;8.25;;
79452;SDS011;68899;52.116;5.404;2024-03-07T04:25:54;16.23;;;8.02;;
79452;SDS011;68899;52.116;5.404;2024-03-07T04:28:22;19.52;;;8.73;;
79452;SDS011;68899;52.116;5.404;2024-03-07T04:30:49;18.27;;;8.60;;
79452;SDS011;68899;52.116;5.404;2024-03-07T04:33:16;18.98;;;9.23;;
79452;SDS011;68899;52.116;5.404;2024-03-07T04:35:43;20.02;;;8.98;;
79452;SDS011;68899;52.116;5.404;2024-03-07T04:38:10;20.70;;;9.75;;
79452;SDS011;68899;52.116;5.404;2024-03-07T04:40:41;20.42;;;10.05;;
79452;SDS011;68899;52.116;5.404;2024-03-07T04:43:09;23.13;;;10.63;;
79452;SDS011;68899;52.116;5.404;2024-03-07T04:45:35;24.17;;;12.40;;
79452;SDS011;68899;52.116;5.404;2024-03-07T04:48:02;26.08;;;11.88;;
79452;SDS011;68899;52.116;5.404;2024-03-07T04:50:29;25.63;;;11.35;;
79452;SDS011;68899;52.116;5.404;2024-03-07T04:52:56;24.38;;;11.40;;
79452;SDS011;68899;52.116;5.404;2024-03-07T04:55:22;22.42;;;10.70;;
79452;SDS011;68899;52.116;5.404;2024-03-07T04:57:49;23.55;;;10.73;;
79452;SDS011;68899;52.116;5.404;2024-03-07T05:00:15;26.27;;;10.93;;
79452;SDS011;68899;52.116;5.404;2024-03-07T05:02:47;24.80;;;10.27;;
79452;SDS011;68899;52.116;5.404;2024-03-07T05:05:17;24.23;;;10.30;;
79452;SDS011;68899;52.116;5.404;2024-03-07T05:10:19;21.48;;;10.48;;
79452;SDS011;68899;52.116;5.404;2024-03-07T05:12:46;22.85;;;10.15;;
79452;SDS011;68899;52.116;5.404;2024-03-07T05:15:13;21.98;;;9.35;;
79452;SDS011;68899;52.116;5.404;2024-03-07T05:17:40;20.27;;;10.05;;
79452;SDS011;68899;52.116;5.404;2024-03-07T05:20:10;21.55;;;9.60;;
79452;SDS011;68899;52.116;5.404;2024-03-07T05:22:40;20.02;;;10.05;;
79452;SDS011;68899;52.116;5.404;2024-03-07T05:25:07;22.67;;;10.05;;
79452;SDS011;68899;52.116;5.404;2024-03-07T05:27:35;24.15;;;10.57;;
79452;SDS011;68899;52.116;5.404;2024-03-07T05:30:03;23.65;;;10.57;;
79452;SDS011;68899;52.116;5.404;2024-03-07T05:32:36;24.15;;;10.20;;
79452;SDS011;68899;52.116;5.404;2024-03-07T05:35:03;23.30;;;10.13;;
79452;SDS011;68899;52.116;5.404;2024-03-07T05:37:29;21.42;;;10.13;;
79452;SDS011;68899;52.116;5.404;2024-03-07T05:39:58;24.98;;;11.35;;
79452;SDS011;68899;52.116;5.404;2024-03-07T05:42:24;20.98;;;10.10;;
79452;SDS011;68899;52.116;5.404;2024-03-07T05:44:52;23.55;;;10.60;;
79452;SDS011;68899;52.116;5.404;2024-03-07T05:47:23;26.08;;;11.55;;
79452;SDS011;68899;52.116;5.404;2024-03-07T05:49:49;25.23;;;10.70;;
79452;SDS011;68899;52.116;5.404;2024-03-07T05:52:16;22.23;;;10.68;;
79452;SDS011;68899;52.116;5.404;2024-03-07T05:54:43;19.90;;;10.50;;
79452;SDS011;68899;52.116;5.404;2024-03-07T05:57:10;22.63;;;10.80;;
79452;SDS011;68899;52.116;5.404;2024-03-07T05:59:38;24.80;;;10.95;;
79452;SDS011;68899;52.116;5.404;2024-03-07T06:02:05;25.58;;;11.88;;
79452;SDS011;68899;52.116;5.404;2024-03-07T06:04:32;25.45;;;10.60;;
79452;SDS011;68899;52.116;5.404;2024-03-07T06:07:00;23.60;;;10.45;;
79452;SDS011;68899;52.116;5.404;2024-03-07T06:09:27;29.40;;;10.68;;
79452;SDS011;68899;52.116;5.404;2024-03-07T06:11:53;25.23;;;11.75;;
79452;SDS011;68899;52.116;5.404;2024-03-07T06:14:20;23.67;;;11.27;;
79452;SDS011;68899;52.116;5.404;2024-03-07T06:16:46;20.60;;;9.02;;
79452;SDS011;68899;52.116;5.404;2024-03-07T06:19:14;27.80;;;10.10;;
79452;SDS011;68899;52.116;5.404;2024-03-07T06:21:40;18.90;;;9.00;;
79452;SDS011;68899;52.116;5.404;2024-03-07T06:24:08;19.55;;;8.48;;
79452;SDS011;68899;52.116;5.404;2024-03-07T06:26:37;19.23;;;9.23;;
79452;SDS011;68899;52.116;5.404;2024-03-07T06:29:12;20.08;;;9.48;;
79452;SDS011;68899;52.116;5.404;2024-03-07T06:31:44;21.58;;;10.20;;
79452;SDS011;68899;52.116;5.404;2024-03-07T06:34:20;21.77;;;11.55;;
79452;SDS011;68899;52.116;5.404;2024-03-07T06:36:46;25.35;;;10.52;;
79452;SDS011;68899;52.116;5.404;2024-03-07T06:39:13;20.88;;;9.90;;
79452;SDS011;68899;52.116;5.404;2024-03-07T06:41:40;24.08;;;10.15;;
79452;SDS011;68899;52.116;5.404;2024-03-07T06:44:07;27.65;;;10.63;;
79452;SDS011;68899;52.116;5.404;2024-03-07T06:46:36;21.33;;;10.48;;
79452;SDS011;68899;52.116;5.404;2024-03-07T06:49:03;24.40;;;10.18;;
79452;SDS011;68899;52.116;5.404;2024-03-07T06:51:32;24.90;;;11.02;;
79452;SDS011;68899;52.116;5.404;2024-03-07T06:53:59;22.13;;;10.43;;
79452;SDS011;68899;52.116;5.404;2024-03-07T06:56:26;27.23;;;13.00;;
79452;SDS011;68899;52.116;5.404;2024-03-07T06:58:53;24.42;;;10.85;;
79452;SDS011;68899;52.116;5.404;2024-03-07T07:01:19;25.85;;;10.52;;
79452;SDS011;68899;52.116;5.404;2024-03-07T07:03:47;37.30;;;15.63;;
79452;SDS011;68899;52.116;5.404;2024-03-07T07:06:14;40.05;;;18.25;;
79452;SDS011;68899;52.116;5.404;2024-03-07T07:08:41;36.13;;;16.63;;
79452;SDS011;68899;52.116;5.404;2024-03-07T07:11:09;35.92;;;15.30;;
79452;SDS011;68899;52.116;5.404;2024-03-07T07:13:38;36.20;;;15.95;;
79452;SDS011;68899;52.116;5.404;2024-03-07T07:16:05;36.75;;;17.48;;
79452;SDS011;68899;52.116;5.404;2024-03-07T07:18:32;38.65;;;17.77;;
79452;SDS011;68899;52.116;5.404;2024-03-07T07:21:00;32.63;;;15.05;;
79452;SDS011;68899;52.116;5.404;2024-03-07T07:23:29;34.97;;;16.67;;
79452;SDS011;68899;52.116;5.404;2024-03-07T07:25:56;42.17;;;16.65;;
79452;SDS011;68899;52.116;5.404;2024-03-07T07:28:23;32.30;;;15.57;;
79452;SDS011;68899;52.116;5.404;2024-03-07T07:30:50;36.03;;;14.95;;
79452;SDS011;68899;52.116;5.404;2024-03-07T07:33:17;33.67;;;14.95;;
79452;SDS011;68899;52.116;5.404;2024-03-07T07:35:44;39.10;;;16.58;;
79452;SDS011;68899;52.116;5.404;2024-03-07T07:38:11;36.90;;;16.20;;
79452;SDS011;68899;52.116;5.404;2024-03-07T07:40:41;76.57;;;28.10;;
79452;SDS011;68899;52.116;5.404;2024-03-07T07:43:11;41.33;;;17.10;;
79452;SDS011;68899;52.116;5.404;2024-03-07T07:45:54;31.42;;;15.50;;
79452;SDS011;68899;52.116;5.404;2024-03-07T07:48:21;30.90;;;14.43;;
79452;SDS011;68899;52.116;5.404;2024-03-07T07:50:48;33.88;;;15.10;;
79452;SDS011;68899;52.116;5.404;2024-03-07T07:53:17;34.83;;;16.35;;
79452;SDS011;68899;52.116;5.404;2024-03-07T07:55:44;34.28;;;14.27;;
79452;SDS011;68899;52.116;5.404;2024-03-07T07:58:12;31.23;;;14.77;;
79452;SDS011;68899;52.116;5.404;2024-03-07T08:00:43;36.35;;;14.93;;
79452;SDS011;68899;52.116;5.404;2024-03-07T08:03:10;35.65;;;15.15;;
79452;SDS011;68899;52.116;5.404;2024-03-07T08:05:37;34.13;;;13.73;;
79452;SDS011;68899;52.116;5.404;2024-03-07T08:08:06;30.55;;;13.45;;
79452;SDS011;68899;52.116;5.404;2024-03-07T08:10:34;28.20;;;13.10;;
79452;SDS011;68899;52.116;5.404;2024-03-07T08:13:02;27.40;;;13.45;;
79452;SDS011;68899;52.116;5.404;2024-03-07T08:15:32;31.40;;;13.80;;
79452;SDS011;68899;52.116;5.404;2024-03-07T08:17:59;30.25;;;13.50;;
79452;SDS011;68899;52.116;5.404;2024-03-07T08:20:27;30.10;;;14.00;;
79452;SDS011;68899;52.116;5.404;2024-03-07T08:22:57;28.63;;;13.73;;
79452;SDS011;68899;52.116;5.404;2024-03-07T08:25:26;27.10;;;13.77;;
79452;SDS011;68899;52.116;5.404;2024-03-07T08:27:56;26.27;;;12.48;;
79452;SDS011;68899;52.116;5.404;2024-03-07T08:30:24;28.20;;;12.68;;
79452;SDS011;68899;52.116;5.404;2024-03-07T08:32:54;26.75;;;12.82;;
79452;SDS011;68899;52.116;5.404;2024-03-07T08:35:22;24.70;;;12.65;;
79452;SDS011;68899;52.116;5.404;2024-03-07T08:37:50;26.70;;;13.30;;
79452;SDS011;68899;52.116;5.404;2024-03-07T08:40:25;25.13;;;12.27;;
79452;SDS011;68899;52.116;5.404;2024-03-07T08:42:58;26.70;;;13.27;;
79452;SDS011;68899;52.116;5.404;2024-03-07T08:45:25;28.25;;;13.32;;
79452;SDS011;68899;52.116;5.404;2024-03-07T08:47:54;28.50;;;13.27;;
79452;SDS011;68899;52.116;5.404;2024-03-07T08:50:25;23.77;;;12.15;;
79452;SDS011;68899;52.116;5.404;2024-03-07T08:52:53;26.42;;;12.65;;
79452;SDS011;68899;52.116;5.404;2024-03-07T08:55:20;22.63;;;11.63;;
79452;SDS011;68899;52.116;5.404;2024-03-07T08:57:49;26.35;;;12.23;;
79452;SDS011;68899;52.116;5.404;2024-03-07T09:00:16;23.63;;;11.80;;
79452;SDS011;68899;52.116;5.404;2024-03-07T09:02:56;22.55;;;11.70;;
79452;SDS011;68899;52.116;5.404;2024-03-07T09:05:26;24.20;;;10.18;;
79452;SDS011;68899;52.116;5.404;2024-03-07T09:07:53;21.90;;;10.32;;
79452;SDS011;68899;52.116;5.404;2024-03-07T09:10:23;20.25;;;10.30;;
79452;SDS011;68899;52.116;5.404;2024-03-07T09:12:52;21.65;;;10.52;;
79452;SDS011;68899;52.116;5.404;2024-03-07T09:15:21;21.05;;;10.45;;
79452;SDS011;68899;52.116;5.404;2024-03-07T09:17:50;21.33;;;10.40;;
79452;SDS011;68899;52.116;5.404;2024-03-07T09:20:17;19.88;;;10.52;;
79452;SDS011;68899;52.116;5.404;2024-03-07T09:22:45;22.98;;;10.60;;
79452;SDS011;68899;52.116;5.404;2024-03-07T09:25:14;17.75;;;9.15;;
79452;SDS011;68899;52.116;5.404;2024-03-07T09:27:42;22.58;;;9.65;;
79452;SDS011;68899;52.116;5.404;2024-03-07T09:30:13;17.23;;;9.93;;
79452;SDS011;68899;52.116;5.404;2024-03-07T09:32:47;16.83;;;9.52;;
79452;SDS011;68899;52.116;5.404;2024-03-07T09:35:13;18.70;;;9.48;;
79452;SDS011;68899;52.116;5.404;2024-03-07T09:37:41;20.48;;;9.70;;
79452;SDS011;68899;52.116;5.404;2024-03-07T09:40:10;19.00;;;9.40;;
79452;SDS011;68899;52.116;5.404;2024-03-07T09:42:44;18.00;;;9.55;;
79452;SDS011;68899;52.116;5.404;2024-03-07T09:45:15;20.10;;;9.65;;
79452;SDS011;68899;52.116;5.404;2024-03-07T09:47:45;20.50;;;10.32;;
79452;SDS011;68899;52.116;5.404;2024-03-07T09:50:19;17.90;;;9.25;;
79452;SDS011;68899;52.116;5.404;2024-03-07T09:52:50;22.23;;;10.38;;
79452;SDS011;68899;52.116;5.404;2024-03-07T09:55:20;19.98;;;9.82;;
79452;SDS011;68899;52.116;5.404;2024-03-07T09:57:52;19.05;;;9.05;;
79452;SDS011;68899;52.116;5.404;2024-03-07T10:00:22;19.98;;;9.50;;
79452;SDS011;68899;52.116;5.404;2024-03-07T10:02:54;21.52;;;9.98;;
79452;SDS011;68899;52.116;5.404;2024-03-07T10:05:28;24.38;;;10.90;;
79452;SDS011;68899;52.116;5.404;2024-03-07T10:07:57;17.90;;;9.13;;
79452;SDS011;68899;52.116;5.404;2024-03-07T10:10:24;16.73;;;8.38;;
79452;SDS011;68899;52.116;5.404;2024-03-07T10:12:52;22.92;;;10.63;;
79452;SDS011;68899;52.116;5.404;2024-03-07T10:15:28;18.50;;;10.23;;
79452;SDS011;68899;52.116;5.404;2024-03-07T10:17:59;22.48;;;9.93;;
79452;SDS011;68899;52.116;5.404;2024-03-07T10:20:28;19.00;;;9.73;;
79452;SDS011;68899;52.116;5.404;2024-03-07T10:22:55;17.30;;;8.30;;
79452;SDS011;68899;52.116;5.404;2024-03-07T10:25:24;15.38;;;8.65;;
79452;SDS011;68899;52.116;5.404;2024-03-07T10:27:53;16.05;;;8.80;;
79452;SDS011;68899;52.116;5.404;2024-03-07T10:30:21;20.33;;;9.02;;
79452;SDS011;68899;52.116;5.404;2024-03-07T10:32:52;18.35;;;9.65;;
79452;SDS011;68899;52.116;5.404;2024-03-07T10:35:22;18.52;;;9.50;;
79452;SDS011;68899;52.116;5.404;2024-03-07T10:37:55;18.83;;;10.02;;
79452;SDS011;68899;52.116;5.404;2024-03-07T10:42:55;22.05;;;8.35;;
79452;SDS011;68899;52.116;5.404;2024-03-07T10:45:24;17.85;;;8.75;;
79452;SDS011;68899;52.116;5.404;2024-03-07T10:47:56;16.85;;;8.40;;
79452;SDS011;68899;52.116;5.404;2024-03-07T10:58:51;18.10;;;8.57;;
79452;SDS011;68899;52.116;5.404;2024-03-07T11:01:45;16.63;;;8.57;;
79452;SDS011;68899;52.116;5.404;2024-03-07T11:04:23;15.57;;;7.85;;
79452;SDS011;68899;52.116;5.404;2024-03-07T11:06:52;17.08;;;9.05;;
79452;SDS011;68899;52.116;5.404;2024-03-07T11:09:20;17.63;;;9.25;;
79452;SDS011;68899;52.116;5.404;2024-03-07T11:11:50;19.60;;;8.77;;
79452;SDS011;68899;52.116;5.404;2024-03-07T11:14:17;19.05;;;7.88;;
79452;SDS011;68899;52.116;5.404;2024-03-07T11:16:45;19.73;;;9.18;;
79452;SDS011;68899;52.116;5.404;2024-03-07T11:19:25;19.05;;;9.45;;
79452;SDS011;68899;52.116;5.404;2024-03-07T11:21:56;19.50;;;8.55;;
79452;SDS011;68899;52.116;5.404;2024-03-07T11:24:27;20.35;;;9.15;;
79452;SDS011;68899;52.116;5.404;2024-03-07T11:27:02;17.27;;;8.68;;
79452;SDS011;68899;52.116;5.404;2024-03-07T11:29:47;17.00;;;8.48;;
79452;SDS011;68899;52.116;5.404;2024-03-07T11:32:20;19.65;;;8.90;;
79452;SDS011;68899;52.116;5.404;2024-03-07T11:34:50;19.20;;;9.55;;
79452;SDS011;68899;52.116;5.404;2024-03-07T11:37:21;22.15;;;10.10;;
79452;SDS011;68899;52.116;5.404;2024-03-07T11:40:07;21.48;;;8.65;;
79452;SDS011;68899;52.116;5.404;2024-03-07T11:42:34;17.70;;;9.02;;
79452;SDS011;68899;52.116;5.404;2024-03-07T11:45:02;17.92;;;9.73;;
79452;SDS011;68899;52.116;5.404;2024-03-07T11:47:36;18.10;;;9.32;;
79452;SDS011;68899;52.116;5.404;2024-03-07T11:50:07;19.58;;;9.60;;
79452;SDS011;68899;52.116;5.404;2024-03-07T11:52:38;22.17;;;9.95;;
79452;SDS011;68899;52.116;5.404;2024-03-07T11:55:09;19.42;;;9.30;;
79452;SDS011;68899;52.116;5.404;2024-03-07T11:57:35;16.52;;;8.32;;
79452;SDS011;68899;52.116;5.404;2024-03-07T12:00:02;17.35;;;9.20;;
79452;SDS011;68899;52.116;5.404;2024-03-07T12:02:37;19.10;;;9.18;;
79452;SDS011;68899;52.116;5.404;2024-03-07T12:05:05;18.58;;;8.77;;
79452;SDS011;68899;52.116;5.404;2024-03-07T12:07:33;18.30;;;8.90;;
79452;SDS011;68899;52.116;5.404;2024-03-07T12:10:00;22.13;;;9.20;;
79452;SDS011;68899;52.116;5.404;2024-03-07T12:12:30;18.75;;;8.18;;
79452;SDS011;68899;52.116;5.404;2024-03-07T12:14:57;14.68;;;8.10;;
79452;SDS011;68899;52.116;5.404;2024-03-07T12:17:24;17.48;;;8.43;;
79452;SDS011;68899;52.116;5.404;2024-03-07T12:19:52;19.10;;;8.88;;
79452;SDS011;68899;52.116;5.404;2024-03-07T12:22:19;19.67;;;8.63;;
79452;SDS011;68899;52.116;5.404;2024-03-07T12:25:00;15.90;;;7.88;;
79452;SDS011;68899;52.116;5.404;2024-03-07T12:27:29;17.77;;;8.48;;
79452;SDS011;68899;52.116;5.404;2024-03-07T12:29:56;16.80;;;8.75;;
79452;SDS011;68899;52.116;5.404;2024-03-07T12:32:23;17.70;;;8.95;;
79452;SDS011;68899;52.116;5.404;2024-03-07T12:34:52;19.80;;;8.82;;
79452;SDS011;68899;52.116;5.404;2024-03-07T12:37:19;14.30;;;8.18;;
79452;SDS011;68899;52.116;5.404;2024-03-07T12:39:53;17.60;;;8.55;;
79452;SDS011;68899;52.116;5.404;2024-03-07T12:42:27;18.92;;;8.73;;
79452;SDS011;68899;52.116;5.404;2024-03-07T12:44:57;17.85;;;8.98;;
79452;SDS011;68899;52.116;5.404;2024-03-07T12:47:25;17.17;;;8.27;;
79452;SDS011;68899;52.116;5.404;2024-03-07T12:49:52;17.00;;;7.75;;
79452;SDS011;68899;52.116;5.404;2024-03-07T12:52:19;16.42;;;8.73;;
79452;SDS011;68899;52.116;5.404;2024-03-07T12:54:46;15.57;;;7.50;;
79452;SDS011;68899;52.116;5.404;2024-03-07T12:57:14;17.35;;;8.70;;
79452;SDS011;68899;52.116;5.404;2024-03-07T12:59:41;17.00;;;8.43;;
79452;SDS011;68899;52.116;5.404;2024-03-07T13:04:39;16.73;;;8.40;;
79452;SDS011;68899;52.116;5.404;2024-03-07T13:07:09;17.63;;;8.40;;
79452;SDS011;68899;52.116;5.404;2024-03-07T13:09:36;21.80;;;8.95;;
79452;SDS011;68899;52.116;5.404;2024-03-07T13:12:04;20.95;;;9.60;;
79452;SDS011;68899;52.116;5.404;2024-03-07T13:14:36;20.73;;;9.18;;
79452;SDS011;68899;52.116;5.404;2024-03-07T13:17:03;16.52;;;9.27;;
79452;SDS011;68899;52.116;5.404;2024-03-07T13:19:31;17.73;;;8.75;;
79452;SDS011;68899;52.116;5.404;2024-03-07T13:21:58;17.83;;;10.00;;
79452;SDS011;68899;52.116;5.404;2024-03-07T13:24:25;16.55;;;8.05;;
79452;SDS011;68899;52.116;5.404;2024-03-07T13:26:53;13.57;;;7.22;;
79452;SDS011;68899;52.116;5.404;2024-03-07T13:29:20;14.95;;;7.82;;
79452;SDS011;68899;52.116;5.404;2024-03-07T13:31:52;19.13;;;8.60;;
79452;SDS011;68899;52.116;5.404;2024-03-07T13:34:22;16.52;;;8.32;;
79452;SDS011;68899;52.116;5.404;2024-03-07T13:36:52;14.60;;;8.50;;
79452;SDS011;68899;52.116;5.404;2024-03-07T13:39:18;14.85;;;7.10;;
79452;SDS011;68899;52.116;5.404;2024-03-07T13:41:45;14.02;;;7.85;;
79452;SDS011;68899;52.116;5.404;2024-03-07T13:44:14;16.13;;;9.10;;
79452;SDS011;68899;52.116;5.404;2024-03-07T13:46:41;16.58;;;8.00;;
79452;SDS011;68899;52.116;5.404;2024-03-07T13:49:08;14.98;;;8.48;;
79452;SDS011;68899;52.116;5.404;2024-03-07T13:51:40;16.80;;;9.18;;
79452;SDS011;68899;52.116;5.404;2024-03-07T13:54:17;41.92;;;9.77;;
79452;SDS011;68899;52.116;5.404;2024-03-07T14:11:01;19.35;;;9.30;;
79452;SDS011;68899;52.116;5.404;2024-03-07T14:19:32;18.33;;;9.70;;
79452;SDS011;68899;52.116;5.404;2024-03-07T14:22:21;14.95;;;8.43;;
79452;SDS011;68899;52.116;5.404;2024-03-07T14:33:20;14.45;;;7.75;;
79452;SDS011;68899;52.116;5.404;2024-03-07T14:36:00;14.82;;;8.20;;
79452;SDS011;68899;52.116;5.404;2024-03-07T14:38:48;14.68;;;7.80;;
79452;SDS011;68899;52.116;5.404;2024-03-07T14:41:20;14.40;;;8.10;;
79452;SDS011;68899;52.116;5.404;2024-03-07T14:44:07;14.88;;;8.00;;
79452;SDS011;68899;52.116;5.404;2024-03-07T14:46:34;15.43;;;8.68;;
79452;SDS011;68899;52.116;5.404;2024-03-07T14:49:03;14.80;;;8.60;;
79452;SDS011;68899;52.116;5.404;2024-03-07T14:51:30;16.77;;;8.23;;
79452;SDS011;68899;52.116;5.404;2024-03-07T14:54:09;19.77;;;9.30;;
79452;SDS011;68899;52.116;5.404;2024-03-07T14:56:39;15.68;;;8.88;;
79452;SDS011;68899;52.116;5.404;2024-03-07T14:59:07;15.40;;;8.15;;
79452;SDS011;68899;52.116;5.404;2024-03-07T15:01:33;13.93;;;7.63;;
79452;SDS011;68899;52.116;5.404;2024-03-07T15:04:00;14.13;;;7.68;;
79452;SDS011;68899;52.116;5.404;2024-03-07T15:06:31;13.68;;;7.50;;
79452;SDS011;68899;52.116;5.404;2024-03-07T15:08:58;15.48;;;8.23;;
79452;SDS011;68899;52.116;5.404;2024-03-07T15:14:01;16.00;;;8.13;;
79452;SDS011;68899;52.116;5.404;2024-03-07T15:16:30;12.80;;;7.45;;
79452;SDS011;68899;52.116;5.404;2024-03-07T15:19:03;15.00;;;8.40;;
79452;SDS011;68899;52.116;5.404;2024-03-07T15:21:31;16.10;;;8.35;;
79452;SDS011;68899;52.116;5.404;2024-03-07T15:23:58;15.38;;;8.50;;